KMCX

White County Airport

Monticello, Indiana, USA
METAR KMCX 221415Z AUTO 23010KT 10SM CLR 07/00 A3011 RMK AO2 T00671002
Observed Flight Rules
Oct-22 @ 14:15 UTC (6 minutes ago) Visual Flight Rules
Wind Visibility Clouds
230° at 10 knots 10 miles
  • Clear skies
Temperatures Readings
Current 7°C / 45°F
Dewpoint -0°C / 32°F
Humidity 61%
Altimeter 30.11" Hg
Pressure 1020 hPa
Elevation 206
METAR KMCX 221415Z AUTO 23010KT 10SM CLR 07/00 A3011 RMK AO2 T00671002
Observed Flight Rules
Oct-22 @ 14:15 UTC
(6 minutes ago)
VFR
Wind Visibility
230° at 10 knots 10 miles
Clouds
  • Clear skies
Temperature Dewpoint
7°C / 45°F -0°C / 32°F
Humidity Altimeter Pressure
61% 30.11" Hg 1020 hPa